Time;durP1;ratioP1;P1;durP2;ratioP2;P2;SDS_P1;SDS_P2;PMS_P1;PMS_P2;Temp;Humidity;BMP_temperature;BMP_pressure;BME280_temperature;BME280_humidity;BME280_pressure;Samples;Min_cycle;Max_cycle;Signal;HPM_P1;HPM_P2
2023/03/03 00:00:38;;;;;;;278.13;19.90;;;;;;;;;;4920442;28;20165;-76
2023/03/03 00:03:06;;;;;;;317.38;22.85;;;;;;;;;;4919500;28;20058;-76
2023/03/03 00:05:32;;;;;;;424.02;22.58;;;;;;;;;;4938360;28;20042;-76
2023/03/03 00:07:59;;;;;;;527.00;25.30;;;;;;;;;;4926397;28;20126;-76
2023/03/03 00:10:25;;;;;;;462.58;23.40;;;;;;;;;;4920925;28;20081;-76
2023/03/03 00:12:51;;;;;;;340.15;19.23;;;;;;;;;;4904774;28;20144;-76
2023/03/03 00:15:19;;;;;;;348.75;19.73;;;;;;;;;;4916429;28;20058;-76
2023/03/03 00:17:46;;;;;;;288.15;17.33;;;;;;;;;;4918818;28;20683;-76
2023/03/03 00:20:31;;;;;;;199.50;17.33;;;;;;;;;;4919351;28;20043;-75
2023/03/03 00:23:15;;;;;;;260.95;20.75;;;;;;;;;;4934843;28;20050;-76
2023/03/03 00:25:45;;;;;;;204.75;19.83;;;;;;;;;;4917815;28;20069;-77
2023/03/03 00:28:31;;;;;;;198.40;18.98;;;;;;;;;;4919378;28;20539;-76
2023/03/03 00:30:59;;;;;;;149.63;18.92;;;;;;;;;;4918534;28;20086;-76
2023/03/03 00:33:28;;;;;;;164.15;17.55;;;;;;;;;;4935209;28;20051;-76
2023/03/03 00:35:59;;;;;;;131.30;17.73;;;;;;;;;;4918098;28;20555;-77
2023/03/03 00:38:26;;;;;;;116.45;15.73;;;;;;;;;;4914805;28;20133;-76
2023/03/03 00:40:52;;;;;;;179.32;18.30;;;;;;;;;;4895251;28;21527;-76
2023/03/03 00:43:18;;;;;;;164.00;17.48;;;;;;;;;;4894774;28;20038;-76
2023/03/03 00:45:44;;;;;;;93.70;16.15;;;;;;;;;;4911821;28;20046;-76
2023/03/03 00:48:30;;;;;;;134.18;17.67;;;;;;;;;;4894249;28;20059;-76
2023/03/03 00:51:00;;;;;;;101.85;16.85;;;;;;;;;;4917092;28;20783;-76
2023/03/03 00:53:28;;;;;;;113.90;16.20;;;;;;;;;;4931538;28;20051;-76
2023/03/03 00:55:55;;;;;;;129.70;15.43;;;;;;;;;;4892875;28;20053;-77
2023/03/03 00:58:22;;;;;;;114.47;15.65;;;;;;;;;;4895575;28;20726;-77
2023/03/03 01:00:49;;;;;;;164.25;16.40;;;;;;;;;;4908577;28;21612;-76
2023/03/03 01:03:17;;;;;;;206.75;17.23;;;;;;;;;;4893998;28;20564;-76
2023/03/03 01:05:43;;;;;;;134.15;15.73;;;;;;;;;;4910807;28;20077;-76
2023/03/03 01:08:10;;;;;;;137.98;15.68;;;;;;;;;;4903617;28;20031;-76
2023/03/03 01:10:38;;;;;;;169.05;14.40;;;;;;;;;;4892349;28;20043;-76
2023/03/03 01:13:06;;;;;;;153.32;13.80;;;;;;;;;;4895627;28;20047;-77
2023/03/03 01:15:32;;;;;;;96.85;12.95;;;;;;;;;;4917121;28;20046;-77
2023/03/03 01:17:58;;;;;;;78.95;13.82;;;;;;;;;;4920803;28;21646;-77
2023/03/03 01:20:24;;;;;;;121.35;13.82;;;;;;;;;;4898878;28;20049;-76
2023/03/03 01:22:50;;;;;;;105.60;13.40;;;;;;;;;;4905162;28;20079;-76
2023/03/03 01:25:16;;;;;;;126.13;14.02;;;;;;;;;;4911170;28;20039;-76
2023/03/03 01:27:42;;;;;;;71.82;13.07;;;;;;;;;;4908245;28;20049;-77
2023/03/03 01:30:08;;;;;;;50.33;12.90;;;;;;;;;;4889307;28;20051;-76
2023/03/03 01:32:35;;;;;;;52.28;13.27;;;;;;;;;;4916930;28;20051;-76
2023/03/03 01:35:01;;;;;;;74.80;14.02;;;;;;;;;;4921844;28;20039;-77
2023/03/03 01:37:27;;;;;;;36.22;13.68;;;;;;;;;;4915872;28;20447;-77
2023/03/03 01:39:53;;;;;;;22.05;11.85;;;;;;;;;;4899043;28;20055;-77
2023/03/03 01:42:20;;;;;;;37.38;12.30;;;;;;;;;;4919305;28;20181;-76
2023/03/03 01:44:46;;;;;;;45.78;12.07;;;;;;;;;;4918536;28;20081;-76
2023/03/03 01:47:15;;;;;;;33.60;11.32;;;;;;;;;;4907618;28;20046;-76
2023/03/03 01:49:44;;;;;;;27.85;10.48;;;;;;;;;;4918837;28;20042;-76
2023/03/03 01:52:13;;;;;;;19.23;11.10;;;;;;;;;;4917684;28;20062;-77
2023/03/03 01:54:41;;;;;;;18.70;10.20;;;;;;;;;;4915230;28;20138;-76
2023/03/03 01:57:11;;;;;;;22.58;9.50;;;;;;;;;;4914070;28;20097;-77
2023/03/03 01:59:40;;;;;;;20.45;11.05;;;;;;;;;;4915399;28;20061;-76
2023/03/03 02:02:07;;;;;;;18.85;10.65;;;;;;;;;;4916146;28;20559;-77
2023/03/03 02:04:34;;;;;;;15.45;10.57;;;;;;;;;;4919049;28;20043;-77
2023/03/03 02:07:03;;;;;;;14.50;10.13;;;;;;;;;;4916257;28;20050;-77
2023/03/03 02:09:33;;;;;;;14.50;10.73;;;;;;;;;;4913976;28;20063;-75
2023/03/03 02:12:02;;;;;;;14.35;10.43;;;;;;;;;;4922482;28;20073;-76
2023/03/03 02:14:28;;;;;;;14.40;10.20;;;;;;;;;;4918068;28;20053;-76
2023/03/03 02:16:54;;;;;;;14.70;11.00;;;;;;;;;;4917279;28;20098;-76
2023/03/03 02:19:40;;;;;;;14.10;10.32;;;;;;;;;;4917550;28;20054;-75
2023/03/03 02:22:07;;;;;;;14.68;10.68;;;;;;;;;;4887793;28;20186;-75
2023/03/03 02:24:46;;;;;;;15.18;11.02;;;;;;;;;;4917985;28;20503;-75
2023/03/03 02:27:13;;;;;;;15.75;10.77;;;;;;;;;;4913502;28;20047;-75
2023/03/03 02:29:39;;;;;;;15.07;11.07;;;;;;;;;;4903607;28;20135;-75
2023/03/03 02:32:05;;;;;;;16.48;10.88;;;;;;;;;;4926583;28;20054;-75
2023/03/03 02:34:43;;;;;;;13.38;9.80;;;;;;;;;;4921382;28;20122;-75
2023/03/03 02:37:09;;;;;;;11.82;8.82;;;;;;;;;;4920770;28;20220;-76
2023/03/03 02:39:35;;;;;;;16.55;10.13;;;;;;;;;;4921543;28;20067;-76
2023/03/03 02:42:04;;;;;;;21.15;10.50;;;;;;;;;;4907069;28;20047;-74
2023/03/03 02:44:31;;;;;;;15.57;10.55;;;;;;;;;;4920655;28;20051;-75
2023/03/03 02:46:57;;;;;;;15.05;11.35;;;;;;;;;;4911133;28;20043;-75
2023/03/03 02:49:25;;;;;;;15.18;11.30;;;;;;;;;;4904904;28;20507;-76
2023/03/03 02:51:51;;;;;;;16.17;11.30;;;;;;;;;;4906995;28;20137;-76
2023/03/03 02:54:19;;;;;;;15.60;10.65;;;;;;;;;;4919314;28;20042;-77
2023/03/03 02:56:45;;;;;;;31.25;9.43;;;;;;;;;;4920685;28;20042;-76
2023/03/03 02:59:11;;;;;;;23.13;9.75;;;;;;;;;;4917972;28;20054;-77
2023/03/03 03:01:37;;;;;;;63.15;9.60;;;;;;;;;;4915800;28;20059;-76
2023/03/03 03:04:23;;;;;;;31.70;9.07;;;;;;;;;;4921335;28;20070;-76
2023/03/03 03:06:49;;;;;;;20.02;8.63;;;;;;;;;;4924227;28;20054;-76
2023/03/03 03:09:16;;;;;;;14.30;8.88;;;;;;;;;;4916628;28;20928;-76
2023/03/03 03:11:42;;;;;;;12.38;9.00;;;;;;;;;;4915924;28;20403;-76
2023/03/03 03:14:09;;;;;;;12.00;8.85;;;;;;;;;;4895913;28;20795;-76
2023/03/03 03:16:36;;;;;;;16.48;9.63;;;;;;;;;;4910527;28;20472;-75
2023/03/03 03:19:02;;;;;;;13.95;10.20;;;;;;;;;;4908588;28;20865;-76
2023/03/03 03:21:28;;;;;;;12.73;9.30;;;;;;;;;;4915199;28;20057;-76
2023/03/03 03:23:55;;;;;;;13.18;9.90;;;;;;;;;;4913665;28;20047;-76
2023/03/03 03:26:21;;;;;;;12.90;9.05;;;;;;;;;;4896144;28;20133;-76
2023/03/03 03:28:50;;;;;;;11.88;8.45;;;;;;;;;;4911743;28;20035;-76
2023/03/03 03:31:17;;;;;;;13.48;9.52;;;;;;;;;;4912448;28;20047;-76
2023/03/03 03:33:43;;;;;;;11.75;9.00;;;;;;;;;;4905480;28;20109;-76
2023/03/03 03:36:10;;;;;;;13.38;9.73;;;;;;;;;;4909794;28;20399;-75
2023/03/03 03:38:36;;;;;;;16.75;9.63;;;;;;;;;;4911543;28;20470;-75
2023/03/03 03:41:02;;;;;;;13.65;8.68;;;;;;;;;;4909617;28;20506;-76
2023/03/03 03:43:29;;;;;;;18.13;9.23;;;;;;;;;;4909459;28;20291;-76
2023/03/03 03:45:55;;;;;;;22.45;9.45;;;;;;;;;;4893683;28;20873;-76
2023/03/03 03:48:21;;;;;;;14.50;9.70;;;;;;;;;;4902920;28;20075;-77
2023/03/03 03:50:48;;;;;;;12.20;8.57;;;;;;;;;;4906338;28;20050;-76
2023/03/03 03:53:14;;;;;;;13.75;9.52;;;;;;;;;;4917463;28;20050;-76
2023/03/03 03:55:40;;;;;;;12.82;8.90;;;;;;;;;;4920114;28;20051;-75
2023/03/03 03:58:06;;;;;;;12.50;8.80;;;;;;;;;;4922446;28;20127;-75
2023/03/03 04:00:32;;;;;;;12.98;8.68;;;;;;;;;;4909783;28;20050;-75
2023/03/03 04:02:58;;;;;;;12.88;8.68;;;;;;;;;;4917594;28;20051;-75
2023/03/03 04:05:24;;;;;;;12.13;8.80;;;;;;;;;;4899315;28;20042;-75
2023/03/03 04:07:50;;;;;;;11.75;9.00;;;;;;;;;;4900615;28;20061;-75
2023/03/03 04:10:17;;;;;;;12.98;8.38;;;;;;;;;;4924068;28;20494;-75
2023/03/03 04:12:43;;;;;;;12.90;8.43;;;;;;;;;;4919290;28;20081;-76
2023/03/03 04:15:10;;;;;;;10.63;7.70;;;;;;;;;;4920584;28;20054;-76
2023/03/03 04:17:36;;;;;;;10.85;7.70;;;;;;;;;;4905304;28;21007;-76
2023/03/03 04:20:03;;;;;;;11.73;8.45;;;;;;;;;;4905257;28;20055;-76
2023/03/03 04:22:32;;;;;;;12.57;7.32;;;;;;;;;;4918324;28;20054;-75
2023/03/03 04:25:05;;;;;;;9.50;7.75;;;;;;;;;;4929957;28;20081;-75
2023/03/03 04:27:32;;;;;;;11.52;8.55;;;;;;;;;;4917044;28;20038;-75
2023/03/03 04:29:58;;;;;;;11.15;8.43;;;;;;;;;;4916601;28;21547;-76
2023/03/03 04:32:24;;;;;;;11.93;8.07;;;;;;;;;;4909142;28;20051;-75
2023/03/03 04:34:50;;;;;;;10.10;7.38;;;;;;;;;;4898103;28;20061;-76
2023/03/03 04:37:16;;;;;;;13.25;7.60;;;;;;;;;;4911045;28;20070;-75
2023/03/03 04:39:42;;;;;;;10.40;8.02;;;;;;;;;;4885477;28;20683;-75
2023/03/03 04:42:08;;;;;;;11.50;8.15;;;;;;;;;;4907092;28;20597;-75
2023/03/03 04:44:35;;;;;;;14.93;8.52;;;;;;;;;;4899484;28;20039;-76
2023/03/03 04:47:01;;;;;;;9.00;7.40;;;;;;;;;;4902534;28;20035;-76
2023/03/03 04:49:27;;;;;;;10.13;7.82;;;;;;;;;;4902380;28;21267;-76
2023/03/03 04:51:53;;;;;;;8.95;6.95;;;;;;;;;;4911658;28;20089;-76
2023/03/03 04:54:19;;;;;;;12.32;8.98;;;;;;;;;;4926072;28;20396;-76
2023/03/03 04:56:45;;;;;;;14.48;10.98;;;;;;;;;;4925847;28;20049;-76
2023/03/03 04:59:11;;;;;;;15.90;9.73;;;;;;;;;;4918732;28;20050;-76
2023/03/03 05:01:37;;;;;;;15.43;8.70;;;;;;;;;;4934501;28;20058;-76
2023/03/03 05:04:03;;;;;;;12.63;8.38;;;;;;;;;;4906712;28;20598;-76
2023/03/03 05:06:29;;;;;;;12.07;8.07;;;;;;;;;;4920357;28;20073;-76
2023/03/03 05:08:56;;;;;;;10.52;7.90;;;;;;;;;;4907118;28;20049;-76
2023/03/03 05:11:22;;;;;;;9.18;7.25;;;;;;;;;;4903951;28;20448;-75
2023/03/03 05:13:48;;;;;;;10.70;7.70;;;;;;;;;;4940654;28;20042;-76
2023/03/03 05:16:14;;;;;;;10.80;7.53;;;;;;;;;;4924938;28;20157;-76
2023/03/03 05:18:40;;;;;;;9.75;7.32;;;;;;;;;;4909041;28;20047;-75
2023/03/03 05:21:06;;;;;;;16.55;7.32;;;;;;;;;;4930442;28;20050;-76
2023/03/03 05:23:32;;;;;;;12.15;6.70;;;;;;;;;;4922926;28;20550;-76
2023/03/03 05:25:58;;;;;;;10.55;7.57;;;;;;;;;;4906786;28;20046;-76
2023/03/03 05:28:24;;;;;;;14.30;8.27;;;;;;;;;;4915076;28;20058;-76
2023/03/03 05:30:51;;;;;;;10.05;7.78;;;;;;;;;;4910495;28;20665;-76
2023/03/03 05:33:17;;;;;;;16.58;7.80;;;;;;;;;;4924890;28;20160;-76
2023/03/03 05:35:43;;;;;;;11.95;8.43;;;;;;;;;;4920557;28;20058;-77
2023/03/03 05:38:10;;;;;;;9.27;7.68;;;;;;;;;;4909666;28;20073;-76
2023/03/03 05:40:37;;;;;;;10.57;6.93;;;;;;;;;;4933458;28;20087;-77
2023/03/03 05:43:03;;;;;;;10.77;7.78;;;;;;;;;;4938865;28;20047;-77
2023/03/03 05:45:29;;;;;;;13.07;9.40;;;;;;;;;;4921527;28;20381;-77
2023/03/03 05:47:55;;;;;;;11.00;8.65;;;;;;;;;;4935266;28;20600;-77
2023/03/03 05:50:22;;;;;;;10.68;7.20;;;;;;;;;;4922678;28;20142;-77
2023/03/03 05:52:49;;;;;;;9.55;7.32;;;;;;;;;;4920921;28;20134;-77
2023/03/03 05:55:15;;;;;;;18.63;8.05;;;;;;;;;;4892208;28;20102;-77
2023/03/03 05:57:41;;;;;;;11.98;6.80;;;;;;;;;;4937909;28;20565;-76
2023/03/03 06:00:07;;;;;;;11.32;7.32;;;;;;;;;;4915160;28;20238;-76
2023/03/03 06:02:34;;;;;;;14.60;8.35;;;;;;;;;;4938577;28;20050;-76
2023/03/03 06:05:00;;;;;;;10.35;8.10;;;;;;;;;;4926579;28;20518;-76
2023/03/03 06:07:27;;;;;;;15.02;8.18;;;;;;;;;;4924448;28;20043;-77
2023/03/03 06:09:53;;;;;;;14.98;8.20;;;;;;;;;;4914322;28;20461;-77
2023/03/03 06:12:19;;;;;;;13.40;8.10;;;;;;;;;;4909239;28;20042;-76
2023/03/03 06:14:45;;;;;;;11.60;7.03;;;;;;;;;;4909956;28;20051;-76
2023/03/03 06:17:11;;;;;;;13.63;7.55;;;;;;;;;;4941464;28;20408;-77
2023/03/03 06:19:40;;;;;;;11.60;7.45;;;;;;;;;;4940708;28;20031;-76
2023/03/03 06:22:06;;;;;;;11.35;7.63;;;;;;;;;;4922710;28;20051;-77
2023/03/03 06:24:32;;;;;;;10.07;7.68;;;;;;;;;;4913865;28;20043;-77
2023/03/03 06:26:58;;;;;;;11.63;8.45;;;;;;;;;;4917817;28;20043;-77
2023/03/03 06:29:25;;;;;;;11.35;8.27;;;;;;;;;;4923955;28;20098;-77
2023/03/03 06:31:51;;;;;;;12.95;8.35;;;;;;;;;;4913441;28;20379;-77
2023/03/03 06:34:17;;;;;;;12.15;8.45;;;;;;;;;;4924976;28;20054;-77
2023/03/03 06:36:43;;;;;;;10.98;8.20;;;;;;;;;;4924388;28;20170;-76
2023/03/03 06:39:09;;;;;;;11.30;8.30;;;;;;;;;;4910478;28;20047;-77
2023/03/03 06:41:35;;;;;;;13.23;7.85;;;;;;;;;;4939781;28;20156;-76
2023/03/03 06:44:01;;;;;;;11.88;8.82;;;;;;;;;;4925461;28;20047;-77
2023/03/03 06:46:27;;;;;;;14.70;9.02;;;;;;;;;;4924131;28;20093;-77
2023/03/03 06:48:54;;;;;;;12.75;8.38;;;;;;;;;;4914634;28;20105;-77
2023/03/03 06:51:27;;;;;;;17.88;8.82;;;;;;;;;;4907551;28;20075;-76
2023/03/03 06:53:56;;;;;;;11.85;8.13;;;;;;;;;;4938871;28;20756;-76
2023/03/03 06:56:26;;;;;;;14.35;8.07;;;;;;;;;;4923053;28;21385;-77
2023/03/03 06:59:01;;;;;;;12.43;8.60;;;;;;;;;;4919650;29;20592;-76
2023/03/03 07:01:30;;;;;;;12.13;8.07;;;;;;;;;;4910503;29;20394;-76
2023/03/03 07:03:56;;;;;;;17.13;8.65;;;;;;;;;;4918842;29;20046;-76
2023/03/03 07:06:23;;;;;;;13.63;8.82;;;;;;;;;;4902084;29;20039;-76
2023/03/03 07:08:51;;;;;;;10.95;7.90;;;;;;;;;;4910216;29;20046;-76
2023/03/03 07:11:18;;;;;;;18.25;8.90;;;;;;;;;;4925538;29;20051;-77
2023/03/03 07:13:47;;;;;;;12.90;7.75;;;;;;;;;;4907560;29;20183;-77
2023/03/03 07:16:14;;;;;;;15.07;8.80;;;;;;;;;;4921223;28;20047;-77
2023/03/03 07:18:51;;;;;;;13.88;8.82;;;;;;;;;;4918970;28;20043;-77
2023/03/03 07:21:20;;;;;;;21.17;9.65;;;;;;;;;;4917756;29;20503;-77
2023/03/03 07:23:48;;;;;;;17.08;8.85;;;;;;;;;;4916340;29;20487;-76
2023/03/03 07:26:16;;;;;;;21.52;9.40;;;;;;;;;;4924390;28;20126;-77
2023/03/03 07:29:03;;;;;;;19.13;9.80;;;;;;;;;;4916505;29;20488;-76
2023/03/03 07:31:36;;;;;;;17.50;9.63;;;;;;;;;;4917364;28;20799;-76
2023/03/03 07:34:05;;;;;;;16.50;9.85;;;;;;;;;;4915157;28;20163;-76
2023/03/03 07:36:34;;;;;;;19.95;10.43;;;;;;;;;;4914921;29;20737;-77
2023/03/03 07:39:04;;;;;;;13.98;9.98;;;;;;;;;;4915655;28;20058;-76
2023/03/03 07:41:31;;;;;;;14.63;10.55;;;;;;;;;;4901369;29;20538;-76
2023/03/03 07:44:00;;;;;;;15.05;9.32;;;;;;;;;;4917058;29;20083;-77
2023/03/03 07:46:40;;;;;;;16.35;10.60;;;;;;;;;;4915374;29;20047;-76
2023/03/03 07:49:25;;;;;;;19.30;10.63;;;;;;;;;;4916046;28;20547;-77
2023/03/03 07:51:56;;;;;;;15.07;9.63;;;;;;;;;;4918362;28;20504;-78
2023/03/03 07:54:39;;;;;;;18.40;11.05;;;;;;;;;;4918197;29;20166;-78
2023/03/03 07:57:06;;;;;;;21.33;13.82;;;;;;;;;;4917161;28;20074;-78
2023/03/03 07:59:34;;;;;;;21.08;15.02;;;;;;;;;;4907506;29;20504;-76
2023/03/03 08:02:01;;;;;;;21.48;12.98;;;;;;;;;;4905952;29;20110;-76
2023/03/03 08:04:29;;;;;;;17.60;12.07;;;;;;;;;;4917133;29;20055;-78
2023/03/03 08:06:55;;;;;;;19.65;10.20;;;;;;;;;;4920384;29;20059;-78
2023/03/03 08:09:27;;;;;;;14.32;9.93;;;;;;;;;;4909363;29;20047;-77
2023/03/03 08:12:08;;;;;;;16.02;10.70;;;;;;;;;;4927266;29;20150;-77
2023/03/03 08:14:35;;;;;;;18.17;9.73;;;;;;;;;;4928071;29;20408;-78
2023/03/03 08:17:02;;;;;;;17.30;11.35;;;;;;;;;;4918293;29;20058;-78
2023/03/03 08:19:30;;;;;;;18.95;10.40;;;;;;;;;;4905114;28;20423;-78
2023/03/03 08:22:00;;;;;;;29.27;11.05;;;;;;;;;;4920269;28;20145;-77
2023/03/03 08:24:26;;;;;;;19.42;10.77;;;;;;;;;;4922057;29;20051;-78
2023/03/03 08:26:52;;;;;;;17.23;10.77;;;;;;;;;;4915864;29;20480;-78
2023/03/03 08:29:18;;;;;;;15.07;9.15;;;;;;;;;;4925373;29;20047;-78
2023/03/03 08:31:44;;;;;;;22.00;10.32;;;;;;;;;;4922458;28;20054;-77
2023/03/03 08:34:11;;;;;;;11.68;8.35;;;;;;;;;;4921703;29;20493;-78
2023/03/03 08:36:37;;;;;;;15.27;10.43;;;;;;;;;;4923108;29;20047;-77
2023/03/03 08:39:04;;;;;;;14.55;9.30;;;;;;;;;;4908685;29;20164;-77
2023/03/03 08:41:30;;;;;;;20.92;10.55;;;;;;;;;;4921880;28;20139;-77
2023/03/03 08:43:56;;;;;;;19.25;12.00;;;;;;;;;;4909647;29;20126;-77
2023/03/03 08:46:22;;;;;;;19.67;9.68;;;;;;;;;;4907334;29;20043;-76
2023/03/03 08:48:48;;;;;;;14.55;9.68;;;;;;;;;;4919289;28;20043;-77
2023/03/03 08:51:14;;;;;;;20.60;9.60;;;;;;;;;;4909285;29;20170;-77
2023/03/03 08:53:41;;;;;;;15.65;9.45;;;;;;;;;;4921211;29;20058;-76
2023/03/03 08:56:07;;;;;;;26.85;11.20;;;;;;;;;;4924194;28;20062;-76
2023/03/03 08:58:33;;;;;;;19.77;11.10;;;;;;;;;;4921689;29;20508;-76
2023/03/03 09:00:59;;;;;;;21.25;11.10;;;;;;;;;;4922694;29;20140;-76
2023/03/03 09:03:26;;;;;;;20.73;10.93;;;;;;;;;;4911344;29;20047;-76
2023/03/03 09:05:52;;;;;;;19.05;11.02;;;;;;;;;;4906031;29;20044;-76
2023/03/03 09:08:18;;;;;;;16.92;10.60;;;;;;;;;;4893149;29;20047;-77
2023/03/03 09:10:44;;;;;;;24.70;12.52;;;;;;;;;;4903384;29;20600;-77
2023/03/03 09:13:15;;;;;;;17.38;10.27;;;;;;;;;;4911408;29;20459;-77
2023/03/03 09:15:41;;;;;;;19.17;9.40;;;;;;;;;;4919119;29;20062;-77
2023/03/03 09:18:26;;;;;;;19.90;10.00;;;;;;;;;;4904356;29;20173;-77
2023/03/03 09:20:53;;;;;;;15.75;9.88;;;;;;;;;;4915303;28;20090;-77
2023/03/03 09:23:38;;;;;;;16.05;9.10;;;;;;;;;;4922766;29;20070;-77
2023/03/03 09:26:04;;;;;;;;;;;;;;;;;;4920736;29;20476;-77
2023/03/03 09:28:31;;;;;;;14.30;9.15;;;;;;;;;;4912845;29;19934;-73
2023/03/03 09:30:58;;;;;;;15.77;9.10;;;;;;;;;;4930775;28;20043;-77
2023/03/03 09:33:32;;;;;;;13.63;8.07;;;;;;;;;;4923367;28;20113;-77
2023/03/03 09:35:58;;;;;;;14.73;9.07;;;;;;;;;;4923020;29;20052;-77
2023/03/03 09:38:32;;;;;;;13.70;8.15;;;;;;;;;;4918475;28;20098;-77
2023/03/03 09:41:08;;;;;;;12.77;7.90;;;;;;;;;;4917318;28;20514;-77
2023/03/03 09:43:53;;;;;;;12.82;6.70;;;;;;;;;;4917517;29;20090;-76
2023/03/03 09:46:19;;;;;;;11.70;7.15;;;;;;;;;;4918371;29;20059;-77
2023/03/03 09:48:55;;;;;;;11.50;6.75;;;;;;;;;;4919125;29;20556;-77
2023/03/03 09:51:30;;;;;;;9.00;5.40;;;;;;;;;;4906719;29;20381;-76
2023/03/03 09:54:12;;;;;;;8.02;5.03;;;;;;;;;;4920699;28;20538;-69
2023/03/03 09:56:51;;;;;;;12.57;4.95;;;;;;;;;;4919897;29;20043;-71
2023/03/03 09:59:19;;;;;;;6.07;4.03;;;;;;;;;;4930775;28;20051;-70
2023/03/03 10:01:55;;;;;;;8.55;3.40;;;;;;;;;;4926609;28;20061;-70
2023/03/03 10:04:33;;;;;;;7.63;1.73;;;;;;;;;;4941271;28;20083;-70
2023/03/03 10:07:11;;;;;;;7.20;1.35;;;;;;;;;;4924979;28;20087;-70
2023/03/03 10:09:49;;;;;;;4.63;1.00;;;;;;;;;;4925139;28;20459;-74
2023/03/03 10:12:39;;;;;;;3.05;0.90;;;;;;;;;;4922798;28;20046;-80
2023/03/03 10:40:45;;;;;;;6.47;1.02;;;;;;;;;;4816301;29;20562;-79
2023/03/03 10:43:30;;;;;;;5.43;1.20;;;;;;;;;;5281663;23;20072;-79
2023/03/03 10:49:15;;;;;;;9.68;1.02;;;;;;;;;;5295932;23;20056;-79
2023/03/03 10:52:06;;;;;;;7.88;1.00;;;;;;;;;;4842089;29;20059;-79
2023/03/03 10:54:43;;;;;;;6.70;1.02;;;;;;;;;;4852569;29;20083;-80
2023/03/03 10:57:12;;;;;;;3.53;0.95;;;;;;;;;;4877484;29;20116;-80
2023/03/03 10:59:50;;;;;;;4.32;0.95;;;;;;;;;;4861912;29;20072;-79
2023/03/03 11:02:35;;;;;;;4.32;1.20;;;;;;;;;;4860775;29;20056;-80
2023/03/03 11:05:22;;;;;;;5.93;1.75;;;;;;;;;;4860120;29;20040;-79
2023/03/03 11:07:54;;;;;;;2.72;1.20;;;;;;;;;;4793943;29;20044;-79
2023/03/03 11:10:20;;;;;;;5.35;1.20;;;;;;;;;;4858896;29;20048;-78
2023/03/03 11:13:08;;;;;;;2.45;0.73;;;;;;;;;;4859702;29;20058;-80
2023/03/03 11:15:45;;;;;;;4.88;1.33;;;;;;;;;;4847837;29;20048;-79
2023/03/03 11:18:15;;;;;;;2.65;0.93;;;;;;;;;;4859900;29;20055;-79
2023/03/03 11:20:57;;;;;;;4.28;1.10;;;;;;;;;;4860872;29;20070;-80
2023/03/03 11:23:26;;;;;;;3.55;0.98;;;;;;;;;;4848691;29;20048;-80
2023/03/03 11:25:53;;;;;;;7.28;1.10;;;;;;;;;;4860996;29;20650;-80
2023/03/03 11:28:29;;;;;;;5.78;0.95;;;;;;;;;;4868304;29;20049;-80
2023/03/03 11:30:58;;;;;;;4.40;1.27;;;;;;;;;;4843167;29;20044;-81
2023/03/03 11:33:33;;;;;;;5.22;1.08;;;;;;;;;;4859312;29;20041;-81
2023/03/03 11:35:59;;;;;;;4.88;1.17;;;;;;;;;;4859560;29;20053;-81
2023/03/03 11:38:31;;;;;;;7.45;1.27;;;;;;;;;;4863467;29;20087;-80
2023/03/03 11:41:03;;;;;;;4.57;1.02;;;;;;;;;;4863432;29;20139;-80
2023/03/03 11:43:35;;;;;;;7.60;1.10;;;;;;;;;;4845039;29;20055;-80
2023/03/03 11:46:04;;;;;;;5.45;1.40;;;;;;;;;;4863994;29;20397;-80
2023/03/03 11:48:41;;;;;;;9.10;1.17;;;;;;;;;;4865283;29;20771;-80
2023/03/03 11:51:12;;;;;;;16.10;3.67;;;;;;;;;;4857589;29;20075;-80
2023/03/03 11:53:41;;;;;;;9.32;1.55;;;;;;;;;;4860429;29;20055;-80
2023/03/03 11:56:43;;;;;;;4.90;1.20;;;;;;;;;;4853464;29;20108;-81
2023/03/03 11:59:19;;;;;;;9.20;1.88;;;;;;;;;;4824914;29;20128;-79
2023/03/03 12:01:45;;;;;;;6.97;1.23;;;;;;;;;;4861520;29;20147;-80
2023/03/03 12:04:14;;;;;;;6.55;1.30;;;;;;;;;;4860151;29;20060;-79
2023/03/03 12:06:53;;;;;;;8.18;1.40;;;;;;;;;;4871733;29;20057;-79
2023/03/03 12:09:37;;;;;;;7.97;1.30;;;;;;;;;;4882551;29;20147;-80
2023/03/03 12:12:04;;;;;;;8.52;1.90;;;;;;;;;;4868967;29;20057;-79
2023/03/03 12:14:42;;;;;;;7.22;1.10;;;;;;;;;;4856330;29;20049;-81
2023/03/03 12:17:14;;;;;;;6.30;1.20;;;;;;;;;;4848138;29;20049;-80
2023/03/03 12:19:56;;;;;;;8.20;1.30;;;;;;;;;;4848414;29;20056;-80
2023/03/03 12:22:35;;;;;;;3.78;0.88;;;;;;;;;;4848195;29;20079;-82
2023/03/03 12:25:06;;;;;;;5.93;1.10;;;;;;;;;;4865523;29;20040;-81
2023/03/03 12:27:41;;;;;;;9.38;1.42;;;;;;;;;;4852687;29;20037;-82
2023/03/03 12:30:13;;;;;;;7.65;1.20;;;;;;;;;;4866729;29;20136;-82
2023/03/03 12:32:48;;;;;;;3.72;1.30;;;;;;;;;;4868963;29;20135;-82
2023/03/03 12:35:28;;;;;;;5.32;1.13;;;;;;;;;;4866358;29;20048;-82
2023/03/03 12:38:08;;;;;;;10.40;1.85;;;;;;;;;;4865100;29;20051;-82
2023/03/03 12:40:35;;;;;;;9.13;1.50;;;;;;;;;;4864335;29;20041;-82
2023/03/03 12:43:04;;;;;;;4.90;1.30;;;;;;;;;;4864546;29;20509;-81
2023/03/03 12:45:36;;;;;;;9.02;1.42;;;;;;;;;;4868812;29;20051;-82
2023/03/03 12:48:08;;;;;;;7.88;1.60;;;;;;;;;;4856100;29;20112;-82
2023/03/03 12:50:38;;;;;;;5.80;1.40;;;;;;;;;;4865855;29;20040;-82
2023/03/03 12:53:04;;;;;;;6.93;1.50;;;;;;;;;;4869861;29;20051;-82
2023/03/03 12:55:36;;;;;;;12.93;1.70;;;;;;;;;;4879999;29;21979;-82
2023/03/03 12:58:09;;;;;;;7.28;1.80;;;;;;;;;;4860437;29;20075;-82
2023/03/03 13:00:38;;;;;;;17.85;2.67;;;;;;;;;;4858860;29;20045;-82
2023/03/03 13:03:11;;;;;;;14.35;2.70;;;;;;;;;;4858538;29;20404;-82
2023/03/03 13:05:51;;;;;;;15.27;2.75;;;;;;;;;;4861377;29;20098;-82
2023/03/03 13:08:36;;;;;;;16.35;2.22;;;;;;;;;;4866248;29;20053;-82
2023/03/03 13:11:21;;;;;;;9.88;2.33;;;;;;;;;;4863686;29;20124;-81
2023/03/03 13:13:58;;;;;;;14.43;2.35;;;;;;;;;;4863430;29;20049;-81
2023/03/03 13:16:29;;;;;;;10.27;1.90;;;;;;;;;;4867489;29;20513;-80
2023/03/03 13:18:59;;;;;;;21.50;2.15;;;;;;;;;;4858712;29;20064;-78
2023/03/03 13:21:36;;;;;;;19.85;3.42;;;;;;;;;;4858962;29;20143;-78
2023/03/03 13:24:16;;;;;;;16.15;2.97;;;;;;;;;;4859981;29;22046;-78
2023/03/03 13:26:48;;;;;;;18.90;2.90;;;;;;;;;;4866534;29;20051;-78
2023/03/03 13:29:23;;;;;;;22.20;3.40;;;;;;;;;;4867642;29;20088;-78
2023/03/03 13:31:52;;;;;;;21.23;3.28;;;;;;;;;;4864278;29;20048;-78
2023/03/03 13:34:33;;;;;;;17.83;3.47;;;;;;;;;;4862349;29;20569;-78
2023/03/03 13:37:31;;;;;;;21.02;3.15;;;;;;;;;;4867949;29;20052;-78
2023/03/03 13:40:17;;;;;;;21.92;3.40;;;;;;;;;;4815538;29;20088;-78
2023/03/03 13:42:46;;;;;;;21.85;3.97;;;;;;;;;;4876030;29;20052;-78
2023/03/03 13:45:31;;;;;;;20.55;3.35;;;;;;;;;;4869741;29;20043;-78
2023/03/03 13:48:13;;;;;;;16.40;3.33;;;;;;;;;;4872138;29;20050;-79
2023/03/03 13:50:53;;;;;;;28.42;3.30;;;;;;;;;;4866073;29;20084;-78
2023/03/03 13:53:19;;;;;;;28.75;4.20;;;;;;;;;;4867416;29;20076;-78
2023/03/03 13:55:53;;;;;;;24.52;3.80;;;;;;;;;;4864779;29;20907;-78
2023/03/03 13:58:32;;;;;;;24.00;3.50;;;;;;;;;;4866595;29;20066;-78
2023/03/03 14:00:58;;;;;;;27.00;3.50;;;;;;;;;;4856819;29;20109;-78
2023/03/03 14:03:57;;;;;;;24.50;2.75;;;;;;;;;;4862726;29;20238;-78
2023/03/03 14:06:26;;;;;;;15.80;3.17;;;;;;;;;;4798091;29;20064;-78
2023/03/03 14:09:00;;;;;;;21.52;3.53;;;;;;;;;;4863604;29;20052;-78
2023/03/03 14:11:26;;;;;;;;;;;;;;;;;;4863512;29;20097;-78
2023/03/03 14:13:52;;;;;;;22.65;3.25;;;;;;;;;;4862518;29;19923;-78
2023/03/03 14:16:37;;;;;;;24.95;2.97;;;;;;;;;;4874168;29;20045;-78
2023/03/03 14:19:10;;;;;;;17.05;3.35;;;;;;;;;;4862941;29;20056;-78
2023/03/03 14:21:39;;;;;;;18.52;3.08;;;;;;;;;;4859316;29;20049;-78
2023/03/03 14:24:05;;;;;;;27.70;3.08;;;;;;;;;;4846442;29;20040;-78
2023/03/03 14:26:31;;;;;;;24.25;3.40;;;;;;;;;;4865115;29;20104;-78
2023/03/03 14:29:18;;;;;;;22.15;2.90;;;;;;;;;;4864966;29;20049;-79
2023/03/03 14:31:44;;;;;;;13.73;3.25;;;;;;;;;;4878542;29;20441;-79
2023/03/03 14:34:10;;;;;;;18.33;3.25;;;;;;;;;;4863348;29;20464;-79
2023/03/03 14:36:41;;;;;;;27.98;3.50;;;;;;;;;;4859815;29;21028;-79
2023/03/03 14:39:26;;;;;;;23.38;3.50;;;;;;;;;;4863634;29;20058;-80
2023/03/03 14:41:52;;;;;;;28.55;3.53;;;;;;;;;;4859376;29;20055;-82
2023/03/03 14:44:21;;;;;;;23.48;3.03;;;;;;;;;;4862658;29;20101;-82
2023/03/03 14:47:00;;;;;;;25.45;4.90;;;;;;;;;;4848304;29;20124;-81
2023/03/03 14:49:33;;;;;;;20.30;3.85;;;;;;;;;;4859425;29;20064;-80
2023/03/03 14:52:03;;;;;;;26.98;4.03;;;;;;;;;;4862211;29;20124;-80
2023/03/03 14:54:33;;;;;;;20.50;4.05;;;;;;;;;;4848162;29;20115;-79
2023/03/03 14:57:00;;;;;;;24.98;4.18;;;;;;;;;;4864148;29;20059;-80
2023/03/03 14:59:27;;;;;;;21.00;3.50;;;;;;;;;;4863005;29;20055;-73
2023/03/03 15:02:06;;;;;;;26.73;3.20;;;;;;;;;;4861461;29;20048;-80
2023/03/03 15:04:32;;;;;;;29.75;3.40;;;;;;;;;;4865073;29;20184;-80
2023/03/03 15:06:58;;;;;;;22.55;3.65;;;;;;;;;;4867559;29;20041;-80
2023/03/03 15:09:35;;;;;;;18.80;4.00;;;;;;;;;;4863202;29;20647;-80
2023/03/03 15:12:02;;;;;;;22.05;3.35;;;;;;;;;;4867836;29;20107;-80
2023/03/03 15:14:31;;;;;;;16.25;3.45;;;;;;;;;;4868269;29;20381;-80